createdAt,value
2023-04-25T00:00:21.816Z,12.20
2023-04-25T00:02:48.978Z,12.20
2023-04-25T00:05:17.365Z,12.10
2023-04-25T00:07:44.803Z,12.10
2023-04-25T00:10:14.759Z,12.20
2023-04-25T00:12:42.972Z,12.10
2023-04-25T00:15:11.761Z,12.20
2023-04-25T00:17:39.984Z,12.20
2023-04-25T00:20:10.135Z,12.20
2023-04-25T00:22:38.436Z,12.20
2023-04-25T00:25:07.306Z,12.00
2023-04-25T00:27:34.741Z,12.00
2023-04-25T00:30:01.794Z,11.80
2023-04-25T00:32:29.176Z,12.00
2023-04-25T00:34:58.834Z,10.60
2023-04-25T00:37:26.399Z,11.00
2023-04-25T00:39:54.774Z,10.50
2023-04-25T00:42:21.829Z,12.00
2023-04-25T00:44:49.444Z,12.00
2023-04-25T00:47:16.866Z,12.00
2023-04-25T00:49:43.788Z,12.00
2023-04-25T00:52:12.113Z,12.00
2023-04-25T00:54:39.521Z,12.00
2023-04-25T00:57:06.649Z,12.10
2023-04-25T00:59:35.030Z,12.10
2023-04-25T01:02:02.186Z,12.20
2023-04-25T01:04:29.901Z,12.10
2023-04-25T01:06:57.719Z,12.00
2023-04-25T01:09:25.739Z,12.00
2023-04-25T01:11:53.617Z,11.90
2023-04-25T01:14:20.672Z,11.90
2023-04-25T01:16:48.027Z,11.90
2023-04-25T01:19:19.213Z,12.00
2023-04-25T01:21:46.858Z,12.00
2023-04-25T01:24:14.988Z,12.00
2023-04-25T01:26:46.002Z,12.00
2023-04-25T01:29:13.208Z,12.00
2023-04-25T01:31:40.544Z,12.00
2023-04-25T01:34:07.537Z,12.10
2023-04-25T01:36:36.162Z,12.10
2023-04-25T01:39:03.849Z,12.00
2023-04-25T01:41:31.002Z,12.00
2023-04-25T01:43:58.618Z,11.90
2023-04-25T01:46:25.623Z,11.90
2023-04-25T01:48:52.682Z,11.80
2023-04-25T01:51:19.841Z,11.80
2023-04-25T01:53:46.846Z,11.80
2023-04-25T01:56:13.730Z,11.70
2023-04-25T01:58:40.745Z,11.80
2023-04-25T02:01:07.650Z,11.80
2023-04-25T02:03:36.069Z,11.70
2023-04-25T02:06:03.635Z,11.70
2023-04-25T02:08:31.401Z,11.70
2023-04-25T02:10:58.773Z,11.60
2023-04-25T02:13:26.183Z,11.60
2023-04-25T02:15:53.278Z,11.60
2023-04-25T02:18:21.613Z,11.50
2023-04-25T02:20:49.133Z,11.40
2023-04-25T02:23:16.665Z,11.40
2023-04-25T02:25:43.681Z,11.30
2023-04-25T02:28:11.554Z,11.20
2023-04-25T02:30:38.664Z,11.10
2023-04-25T02:33:05.756Z,11.20
2023-04-25T02:35:32.715Z,11.20
2023-04-25T02:37:59.620Z,11.20
2023-04-25T02:40:26.656Z,11.20
2023-04-25T02:42:53.575Z,11.20
2023-04-25T02:45:20.534Z,11.20
2023-04-25T02:50:32.728Z,11.30
2023-04-25T02:56:05.521Z,11.20
2023-04-25T02:58:32.593Z,11.20
2023-04-25T03:00:59.618Z,11.30
2023-04-25T03:03:27.087Z,11.30
2023-04-25T03:05:54.152Z,11.30
2023-04-25T03:08:21.070Z,11.30
2023-04-25T03:10:48.838Z,11.20
2023-04-25T03:13:15.866Z,11.10
2023-04-25T03:15:43.112Z,11.10
2023-04-25T03:18:10.954Z,11.10
2023-04-25T03:20:37.923Z,11.00
2023-04-25T03:23:05.031Z,11.10
2023-04-25T03:25:32.565Z,11.10
2023-04-25T03:27:59.432Z,11.10
2023-04-25T03:30:26.422Z,11.10
2023-04-25T03:32:53.430Z,11.00
2023-04-25T03:35:20.392Z,10.90
2023-04-25T03:37:47.439Z,11.00
2023-04-25T03:40:14.354Z,11.00
2023-04-25T03:42:42.492Z,11.10
2023-04-25T03:45:10.972Z,11.10
2023-04-25T03:47:37.907Z,11.10
2023-04-25T03:50:07.152Z,11.10
2023-04-25T03:52:34.232Z,11.20
2023-04-25T03:55:01.337Z,11.10
2023-04-25T04:00:14.553Z,11.20
2023-04-25T04:08:39.747Z,11.40
2023-04-25T04:11:53.060Z,11.30
2023-04-25T04:14:19.978Z,11.20
2023-04-25T04:16:46.980Z,11.10
2023-04-25T04:19:14.369Z,11.10
2023-04-25T04:21:41.440Z,11.10
2023-04-25T04:24:08.605Z,11.20
2023-04-25T04:26:35.503Z,11.10
2023-04-25T04:29:02.978Z,11.10
2023-04-25T04:31:31.443Z,11.10
2023-04-25T04:33:58.358Z,11.10
2023-04-25T04:36:27.183Z,11.20
2023-04-25T04:38:54.129Z,11.30
2023-04-25T04:41:21.479Z,11.30
2023-04-25T04:43:48.593Z,11.40
2023-04-25T04:46:16.016Z,11.40
2023-04-25T04:48:46.904Z,11.40
2023-04-25T04:51:14.057Z,11.30
2023-04-25T04:53:41.227Z,11.40
2023-04-25T04:56:08.603Z,11.40
2023-04-25T04:58:37.683Z,11.40
2023-04-25T05:01:04.633Z,11.50
2023-04-25T05:06:38.658Z,11.60
2023-04-25T05:09:05.771Z,11.40
2023-04-25T05:11:32.868Z,11.30
2023-04-25T05:13:59.797Z,11.30
2023-04-25T05:16:27.252Z,11.30
2023-04-25T05:18:54.246Z,11.40
2023-04-25T05:21:21.203Z,11.30
2023-04-25T05:23:48.207Z,11.30
2023-04-25T05:26:15.226Z,11.20
2023-04-25T05:28:43.194Z,11.30
2023-04-25T05:31:13.858Z,11.30
2023-04-25T05:33:40.758Z,11.40
2023-04-25T05:36:08.301Z,11.60
2023-04-25T05:38:37.036Z,11.70
2023-04-25T05:41:21.504Z,11.80
2023-04-25T05:43:50.723Z,11.90
2023-04-25T05:49:06.822Z,11.80
2023-04-25T05:51:34.141Z,11.80
2023-04-25T05:54:01.048Z,12.00
2023-04-25T05:56:28.028Z,12.20
2023-04-25T05:58:55.007Z,12.30
2023-04-25T06:01:24.046Z,12.30
2023-04-25T06:03:53.067Z,12.50
2023-04-25T06:06:20.757Z,12.80
2023-04-25T06:08:47.677Z,13.00
2023-04-25T06:11:38.337Z,13.30
2023-04-25T06:14:05.428Z,13.50
2023-04-25T06:16:32.355Z,13.70
2023-04-25T06:18:59.743Z,13.90
2023-04-25T06:21:26.829Z,13.90
2023-04-25T06:23:53.946Z,13.90
2023-04-25T06:26:21.129Z,14.00
2023-04-25T06:28:48.482Z,13.80
2023-04-25T06:31:16.095Z,13.90
2023-04-25T06:33:42.978Z,13.80
2023-04-25T06:36:16.028Z,13.60
2023-04-25T06:38:45.539Z,13.70
2023-04-25T06:41:15.646Z,13.90
2023-04-25T06:43:42.579Z,13.90
2023-04-25T06:46:09.849Z,14.00
2023-04-25T06:48:37.383Z,14.20
2023-04-25T06:51:04.691Z,14.20
2023-04-25T06:53:31.988Z,14.60
2023-04-25T06:55:58.931Z,14.80
2023-04-25T06:58:27.140Z,14.90
2023-04-25T07:00:54.478Z,15.10
2023-04-25T07:03:21.797Z,15.00
2023-04-25T07:05:48.988Z,15.20
2023-04-25T07:08:16.024Z,15.40
2023-04-25T07:10:43.185Z,15.40
2023-04-25T07:13:10.174Z,15.40
2023-04-25T07:15:37.514Z,15.10
2023-04-25T07:18:04.882Z,15.10
2023-04-25T07:20:32.086Z,15.10
2023-04-25T07:22:59.337Z,15.10
2023-04-25T07:25:26.330Z,15.10
2023-04-25T07:27:53.230Z,15.20
2023-04-25T07:30:20.572Z,15.30
2023-04-25T07:32:48.177Z,15.00
2023-04-25T07:35:15.285Z,15.30
2023-04-25T07:37:42.187Z,15.60
2023-04-25T07:40:10.753Z,15.70
2023-04-25T07:47:58.643Z,15.90
2023-04-25T07:50:26.682Z,15.60
2023-04-25T07:55:29.516Z,16.00
2023-04-25T07:57:57.389Z,14.80
2023-04-25T08:00:24.747Z,15.90
2023-04-25T08:02:52.414Z,14.90
2023-04-25T08:05:22.747Z,16.80
2023-04-25T08:07:51.201Z,17.00
2023-04-25T08:10:18.187Z,17.00
2023-04-25T08:12:45.591Z,17.20
2023-04-25T08:15:14.776Z,17.40
2023-04-25T08:17:42.128Z,17.80
2023-04-25T08:20:09.977Z,18.00
2023-04-25T08:22:36.970Z,17.60
2023-04-25T08:25:04.699Z,17.50
2023-04-25T08:27:31.664Z,17.50
2023-04-25T08:29:59.805Z,17.70
2023-04-25T08:32:29.645Z,17.50
2023-04-25T08:34:57.848Z,17.40
2023-04-25T08:37:24.768Z,17.40
2023-04-25T08:39:54.384Z,17.60
2023-04-25T08:42:23.146Z,17.80
2023-04-25T08:45:21.209Z,18.00
2023-04-25T08:47:49.974Z,18.30
2023-04-25T08:50:18.511Z,18.60
2023-04-25T08:52:49.240Z,18.80
2023-04-25T08:55:17.219Z,18.90
2023-04-25T08:57:44.664Z,18.40
2023-04-25T09:00:13.790Z,18.40
2023-04-25T09:02:41.319Z,18.70
2023-04-25T09:05:11.174Z,19.00
2023-04-25T09:07:38.497Z,19.20
2023-04-25T09:10:05.972Z,19.20
2023-04-25T09:12:33.232Z,19.30
2023-04-25T09:15:10.901Z,19.30
2023-04-25T09:17:41.489Z,19.30
2023-04-25T09:20:10.717Z,19.10
2023-04-25T09:22:38.617Z,18.70
2023-04-25T09:25:17.728Z,18.90
2023-04-25T09:27:53.176Z,18.80
2023-04-25T09:30:29.609Z,18.90
2023-04-25T09:32:58.868Z,18.60
2023-04-25T09:35:27.468Z,18.50
2023-04-25T09:37:54.966Z,18.60
2023-04-25T09:40:22.051Z,18.80
2023-04-25T09:42:48.998Z,18.80
2023-04-25T09:45:16.253Z,18.80
2023-04-25T09:47:45.097Z,19.10
2023-04-25T09:50:16.744Z,19.10
2023-04-25T09:52:44.241Z,18.90
2023-04-25T09:55:11.209Z,18.80
2023-04-25T09:57:41.342Z,19.00
2023-04-25T10:00:13.188Z,18.90
2023-04-25T10:02:43.656Z,19.20
2023-04-25T10:05:12.431Z,19.60
2023-04-25T10:07:39.812Z,20.00
2023-04-25T10:10:07.306Z,20.40
2023-04-25T10:12:35.124Z,20.80
2023-04-25T10:15:03.872Z,21.00
2023-04-25T10:17:32.995Z,21.10
2023-04-25T10:20:13.235Z,21.50
2023-04-25T10:22:49.278Z,21.90
2023-04-25T10:25:16.960Z,22.20
2023-04-25T10:27:44.926Z,22.10
2023-04-25T10:30:16.780Z,22.20
2023-04-25T10:32:45.069Z,21.70
2023-04-25T10:35:18.379Z,22.10
2023-04-25T10:38:08.431Z,22.10
2023-04-25T10:43:32.896Z,21.70
2023-04-25T10:46:04.470Z,21.40
2023-04-25T10:48:32.808Z,21.40
2023-04-25T10:51:17.162Z,21.60
2023-04-25T10:53:56.859Z,21.60
2023-04-25T10:56:27.037Z,21.40
2023-04-25T10:59:06.809Z,21.40
2023-04-25T11:01:40.007Z,21.60
2023-04-25T11:04:07.984Z,21.90
2023-04-25T11:12:13.164Z,22.90
2023-04-25T11:14:37.831Z,22.30
2023-04-25T11:17:07.873Z,24.10
2023-04-25T11:19:35.050Z,24.60
2023-04-25T11:22:04.158Z,24.60
2023-04-25T11:24:36.059Z,24.10
2023-04-25T11:27:04.109Z,23.60
2023-04-25T11:29:32.346Z,23.30
2023-04-25T11:31:59.949Z,23.30
2023-04-25T11:34:34.165Z,23.20
2023-04-25T11:37:04.888Z,23.60
2023-04-25T11:39:32.068Z,24.80
2023-04-25T11:42:00.891Z,26.30
2023-04-25T11:44:29.544Z,26.90
2023-04-25T11:46:56.699Z,27.90
2023-04-25T11:49:25.832Z,28.40
2023-04-25T11:51:53.001Z,28.60
2023-04-25T11:54:20.786Z,29.40
2023-04-25T11:56:47.814Z,30.30
2023-04-25T11:59:15.650Z,30.50
2023-04-25T12:01:49.885Z,31.30
2023-04-25T12:04:20.492Z,31.90
2023-04-25T12:06:49.940Z,31.40
2023-04-25T12:09:32.366Z,31.40
2023-04-25T12:12:03.953Z,32.40
2023-04-25T12:14:33.509Z,33.80
2023-04-25T12:17:02.186Z,33.30
2023-04-25T12:19:36.912Z,34.00
2023-04-25T12:22:04.566Z,34.20
2023-04-25T12:24:38.398Z,35.30
2023-04-25T12:27:09.350Z,35.10
2023-04-25T12:32:06.985Z,36.50
2023-04-25T12:34:35.924Z,36.60
2023-04-25T12:37:02.904Z,36.70
2023-04-25T12:39:30.008Z,37.30
2023-04-25T12:41:57.415Z,37.70
2023-04-25T12:44:24.348Z,38.30
2023-04-25T12:46:51.510Z,38.00
2023-04-25T12:49:19.623Z,38.30
2023-04-25T12:51:46.757Z,38.50
2023-04-25T12:54:15.406Z,39.10
2023-04-25T12:56:43.262Z,39.40
2023-04-25T12:59:10.515Z,39.50
2023-04-25T13:01:37.877Z,40.10
2023-04-25T13:04:05.553Z,40.10
2023-04-25T13:06:32.922Z,40.50
2023-04-25T13:08:59.864Z,40.00
2023-04-25T13:11:26.830Z,39.90
2023-04-25T13:13:54.102Z,39.80
2023-04-25T13:16:22.478Z,39.80
2023-04-25T13:18:50.000Z,38.30
2023-04-25T13:21:17.570Z,36.20
2023-04-25T13:23:45.690Z,32.80
2023-04-25T13:26:12.548Z,30.50
2023-04-25T13:28:39.474Z,32.10
2023-04-25T13:31:06.493Z,34.70
2023-04-25T13:33:33.721Z,37.30
2023-04-25T13:36:02.223Z,39.30
2023-04-25T13:38:29.525Z,40.10
2023-04-25T13:40:56.888Z,41.60
2023-04-25T13:43:24.223Z,42.70
2023-04-25T13:45:52.575Z,43.40
2023-04-25T13:48:21.292Z,43.50
2023-04-25T13:50:48.343Z,45.00
2023-04-25T13:53:15.626Z,46.10
2023-04-25T13:55:42.488Z,46.60
2023-04-25T13:58:11.013Z,45.80
2023-04-25T14:00:40.464Z,45.60
2023-04-25T14:03:10.630Z,45.80
2023-04-25T14:05:39.089Z,46.20
2023-04-25T14:08:10.528Z,46.30
2023-04-25T14:10:38.304Z,46.60
2023-04-25T14:13:05.597Z,47.70
2023-04-25T14:15:35.954Z,47.70
2023-04-25T14:18:09.669Z,47.50
2023-04-25T14:20:36.694Z,47.70
2023-04-25T14:23:03.974Z,48.00
2023-04-25T14:25:31.559Z,48.20
2023-04-25T14:27:58.534Z,48.60
2023-04-25T14:30:25.496Z,48.30
2023-04-25T14:32:52.562Z,47.80
2023-04-25T14:35:19.808Z,48.70
2023-04-25T14:37:46.893Z,48.50
2023-04-25T14:40:16.476Z,49.40
2023-04-25T14:42:43.799Z,49.00
2023-04-25T14:45:11.103Z,46.20
2023-04-25T14:47:39.053Z,45.80
2023-04-25T14:50:07.418Z,46.00
2023-04-25T14:52:34.377Z,44.50
2023-04-25T14:55:05.762Z,44.00
2023-04-25T14:57:36.141Z,44.40
2023-04-25T15:00:07.941Z,44.90
2023-04-25T15:02:35.774Z,44.20
2023-04-25T15:05:04.413Z,41.80
2023-04-25T15:07:31.664Z,38.70
2023-04-25T15:09:58.579Z,36.90
2023-04-25T15:12:27.343Z,36.00
2023-04-25T15:14:54.328Z,33.50
2023-04-25T15:17:21.311Z,30.70
2023-04-25T15:19:48.142Z,28.30
2023-04-25T15:22:15.054Z,26.80
2023-04-25T15:24:42.383Z,25.70
2023-04-25T15:27:09.523Z,25.00
2023-04-25T15:29:36.884Z,24.40
2023-04-25T15:32:04.553Z,23.60
2023-04-25T15:34:31.828Z,23.00
2023-04-25T15:36:59.172Z,22.60
2023-04-25T15:39:26.229Z,22.10
2023-04-25T15:41:53.677Z,21.70
2023-04-25T15:44:20.510Z,21.30
2023-04-25T15:46:47.451Z,21.00
2023-04-25T15:49:14.335Z,20.80
2023-04-25T15:51:41.478Z,20.60
2023-04-25T15:54:09.222Z,20.50
2023-04-25T15:56:36.676Z,20.10
2023-04-25T15:59:03.943Z,19.90
2023-04-25T16:01:31.926Z,19.70
2023-04-25T16:03:59.556Z,19.60
2023-04-25T16:06:27.406Z,19.70
2023-04-25T16:08:55.219Z,19.60
2023-04-25T16:11:22.245Z,19.50
2023-04-25T16:13:49.931Z,19.40
2023-04-25T16:16:17.608Z,19.30
2023-04-25T16:18:44.708Z,19.10
2023-04-25T16:21:17.116Z,19.10
2023-04-25T16:23:44.537Z,19.00
2023-04-25T16:26:11.897Z,19.00
2023-04-25T16:28:38.864Z,18.90
2023-04-25T16:31:06.837Z,18.90
2023-04-25T16:33:34.893Z,18.80
2023-04-25T16:36:02.285Z,18.80
2023-04-25T16:38:29.143Z,18.80
2023-04-25T16:40:56.143Z,18.80
2023-04-25T16:43:24.283Z,18.80
2023-04-25T16:45:51.396Z,18.80
2023-04-25T16:48:20.857Z,18.70
2023-04-25T16:50:48.339Z,18.50
2023-04-25T16:53:15.707Z,18.50
2023-04-25T16:55:43.122Z,18.00
2023-04-25T16:58:14.487Z,17.50
2023-04-25T17:00:42.191Z,17.50
2023-04-25T17:03:09.647Z,17.40
2023-04-25T17:05:37.244Z,17.30
2023-04-25T17:08:04.201Z,17.10
2023-04-25T17:10:31.513Z,16.80
2023-04-25T17:12:58.433Z,16.80
2023-04-25T17:15:25.581Z,16.80
2023-04-25T17:17:53.046Z,17.00
2023-04-25T17:20:20.064Z,17.00
2023-04-25T17:22:47.358Z,17.00
2023-04-25T17:25:14.605Z,17.00
2023-04-25T17:27:41.523Z,16.90
2023-04-25T17:30:10.103Z,16.70
2023-04-25T17:32:37.098Z,16.40
2023-04-25T17:35:05.526Z,16.20
2023-04-25T17:37:32.415Z,16.00
2023-04-25T17:39:59.320Z,15.60
2023-04-25T17:42:26.246Z,15.30
2023-04-25T17:44:55.565Z,15.30
2023-04-25T17:47:23.767Z,15.20
2023-04-25T17:49:51.528Z,15.10
2023-04-25T17:52:18.983Z,15.00
2023-04-25T17:54:47.997Z,15.00
2023-04-25T17:57:17.310Z,15.00
2023-04-25T17:59:44.388Z,15.10
2023-04-25T18:02:11.650Z,15.10
2023-04-25T18:04:45.352Z,15.10
2023-04-25T18:07:16.416Z,15.00
2023-04-25T18:09:43.388Z,14.90
2023-04-25T18:12:10.437Z,14.80
2023-04-25T18:14:37.660Z,14.70
2023-04-25T18:17:07.158Z,14.60
2023-04-25T18:19:35.220Z,14.60
2023-04-25T18:22:04.277Z,14.50
2023-04-25T18:24:59.412Z,14.50
2023-04-25T18:30:09.066Z,14.30
2023-04-25T18:32:36.679Z,14.30
2023-04-25T18:35:04.558Z,14.30
2023-04-25T18:37:31.439Z,14.40
2023-04-25T18:39:59.343Z,14.50
2023-04-25T18:42:26.338Z,14.60
2023-04-25T18:44:54.431Z,14.50
2023-04-25T18:47:21.338Z,14.50
2023-04-25T18:49:48.840Z,14.50
2023-04-25T18:52:16.424Z,14.60
2023-04-25T18:54:45.936Z,14.80
2023-04-25T18:57:15.183Z,14.80
2023-04-25T18:59:44.491Z,14.80
2023-04-25T19:02:13.404Z,14.80
2023-04-25T19:04:40.843Z,14.80
2023-04-25T19:07:07.790Z,14.70
2023-04-25T19:09:34.876Z,14.60
2023-04-25T19:12:03.264Z,14.50
2023-04-25T19:14:32.451Z,14.40
2023-04-25T19:17:00.228Z,14.40
2023-04-25T19:19:29.705Z,14.20
2023-04-25T19:21:58.906Z,14.00
2023-04-25T19:24:27.096Z,14.00
2023-04-25T19:26:54.152Z,13.80
2023-04-25T19:29:21.437Z,13.70
2023-04-25T19:31:48.385Z,13.60
2023-04-25T19:34:15.544Z,13.70
2023-04-25T19:36:44.082Z,13.70
2023-04-25T19:39:11.311Z,13.60
2023-04-25T19:41:39.057Z,13.60
2023-04-25T19:44:09.131Z,13.50
2023-04-25T19:46:37.447Z,13.40
2023-04-25T19:49:08.902Z,13.40
2023-04-25T19:54:11.238Z,12.20
2023-04-25T19:56:38.251Z,13.00
2023-04-25T19:59:05.115Z,13.00
2023-04-25T20:01:32.071Z,12.90
2023-04-25T20:03:59.724Z,12.80
2023-04-25T20:09:44.812Z,12.70
2023-04-25T20:14:57.207Z,12.40
2023-04-25T20:17:25.068Z,12.40
2023-04-25T20:19:53.046Z,12.30
2023-04-25T20:22:41.129Z,12.20
2023-04-25T20:25:10.118Z,10.70
2023-04-25T20:27:41.222Z,12.20
2023-04-25T20:30:10.192Z,12.30
2023-04-25T20:32:37.913Z,12.20
2023-04-25T20:35:07.398Z,12.40
2023-04-25T20:40:20.946Z,12.20
2023-04-25T20:42:48.071Z,10.70
2023-04-25T20:45:16.059Z,12.30
2023-04-25T20:47:44.547Z,12.30
2023-04-25T20:50:12.452Z,12.30
2023-04-25T20:52:39.568Z,10.80
2023-04-25T20:55:07.696Z,12.30
2023-04-25T21:00:27.128Z,12.20
2023-04-25T21:05:30.946Z,12.60
2023-04-25T21:07:58.316Z,13.40
2023-04-25T21:10:25.490Z,12.80
2023-04-25T21:15:40.326Z,12.30
2023-04-25T21:18:07.484Z,12.10
2023-04-25T21:20:34.851Z,11.80
2023-04-25T21:23:02.108Z,11.90
2023-04-25T21:25:31.442Z,11.80
2023-04-25T21:27:59.298Z,11.80
2023-04-25T21:30:42.571Z,11.70
2023-04-25T21:34:25.493Z,11.80
2023-04-25T21:36:52.813Z,11.80
2023-04-25T21:39:20.144Z,11.90
2023-04-25T21:41:48.452Z,11.90
2023-04-25T21:44:15.859Z,11.80
2023-04-25T21:46:43.040Z,11.50
2023-04-25T21:49:10.004Z,11.20
2023-04-25T21:51:36.963Z,11.00
2023-04-25T21:54:05.696Z,10.90
2023-04-25T21:56:33.331Z,10.70
2023-04-25T21:59:00.684Z,10.60
2023-04-25T22:01:28.620Z,10.70
2023-04-25T22:03:56.212Z,10.80
2023-04-25T22:06:23.361Z,10.80
2023-04-25T22:08:50.447Z,10.80
2023-04-25T22:11:18.014Z,10.50
2023-04-25T22:13:45.664Z,10.40
2023-04-25T22:16:12.748Z,10.40
2023-04-25T22:18:40.561Z,10.60
2023-04-25T22:21:08.789Z,10.50
2023-04-25T22:23:37.442Z,10.40
2023-04-25T22:26:05.178Z,10.40
2023-04-25T22:28:33.833Z,10.40
2023-04-25T22:31:00.768Z,10.40
2023-04-25T22:33:28.025Z,10.30
2023-04-25T22:35:55.371Z,10.30
2023-04-25T22:38:22.255Z,10.40
2023-04-25T22:40:49.141Z,10.50
2023-04-25T22:43:16.234Z,10.60
2023-04-25T22:45:43.243Z,10.60
2023-04-25T22:48:10.698Z,10.70
2023-04-25T22:50:40.449Z,10.60
2023-04-25T22:53:13.828Z,10.70
2023-04-25T22:55:40.890Z,10.80
2023-04-25T22:58:09.464Z,10.90
2023-04-25T23:00:37.699Z,10.90
2023-04-25T23:03:05.997Z,10.80
2023-04-25T23:05:33.219Z,10.70
2023-04-25T23:08:00.198Z,10.60
2023-04-25T23:10:28.537Z,10.50
2023-04-25T23:12:58.245Z,10.50
2023-04-25T23:15:27.656Z,10.50
2023-04-25T23:17:54.778Z,10.60
2023-04-25T23:20:21.776Z,10.60
2023-04-25T23:22:49.771Z,10.70
2023-04-25T23:25:18.170Z,10.60
2023-04-25T23:27:45.249Z,10.50
2023-04-25T23:30:12.525Z,10.60
2023-04-25T23:32:39.680Z,10.60
2023-04-25T23:35:07.727Z,10.60
2023-04-25T23:37:35.955Z,10.60
2023-04-25T23:40:08.567Z,10.50
2023-04-25T23:42:36.741Z,10.50
2023-04-25T23:45:08.025Z,10.50
2023-04-25T23:47:36.013Z,10.60
2023-04-25T23:50:04.091Z,10.50
2023-04-25T23:52:31.137Z,10.60
2023-04-25T23:54:57.999Z,10.60
2023-04-25T23:57:24.914Z,10.50
2023-04-25T23:59:51.867Z,10.50
